createdAt,value
2019-01-06T00:00:01.401Z,305.53
2019-01-06T00:01:01.540Z,306.02
2019-01-06T00:02:01.630Z,306.00
2019-01-06T00:03:01.798Z,306.04
2019-01-06T00:04:01.987Z,305.90
2019-01-06T00:05:02.100Z,306.40
2019-01-06T00:06:02.175Z,305.73
2019-01-06T00:07:02.266Z,306.17
2019-01-06T00:08:02.427Z,306.33
2019-01-06T00:09:02.604Z,305.89
2019-01-06T00:10:02.662Z,306.11
2019-01-06T00:11:02.787Z,305.82
2019-01-06T00:12:03.071Z,306.14
2019-01-06T00:13:03.112Z,305.71
2019-01-06T00:14:03.223Z,306.01
2019-01-06T00:15:03.260Z,305.90
2019-01-06T00:16:03.380Z,305.44
2019-01-06T00:17:03.524Z,306.15
2019-01-06T00:18:03.652Z,305.65
2019-01-06T00:19:03.806Z,305.97
2019-01-06T00:20:03.886Z,305.93
2019-01-06T00:21:04.046Z,305.85
2019-01-06T00:22:04.221Z,305.58
2019-01-06T00:23:04.273Z,305.53
2019-01-06T00:24:04.424Z,305.87
2019-01-06T00:25:04.548Z,305.77
2019-01-06T00:26:04.641Z,306.21
2019-01-06T00:27:04.782Z,305.75
2019-01-06T00:28:04.885Z,305.87
2019-01-06T00:29:05.030Z,306.17
2019-01-06T00:30:05.264Z,305.82
2019-01-06T00:31:05.257Z,305.79
2019-01-06T00:32:05.400Z,305.64
2019-01-06T00:33:05.502Z,305.84
2019-01-06T00:34:05.653Z,305.71
2019-01-06T00:35:05.719Z,306.38
2019-01-06T00:36:05.868Z,305.38
2019-01-06T00:37:06.028Z,305.66
2019-01-06T00:38:06.266Z,305.63
2019-01-06T00:39:06.277Z,305.68
2019-01-06T00:40:06.361Z,305.58
2019-01-06T00:41:06.501Z,305.41
2019-01-06T00:42:06.648Z,305.34
2019-01-06T00:43:06.747Z,305.60
2019-01-06T00:44:06.919Z,305.80
2019-01-06T00:45:06.993Z,305.30
2019-01-06T00:46:07.154Z,305.13
2019-01-06T00:47:07.242Z,306.12
2019-01-06T00:48:07.354Z,305.57
2019-01-06T00:49:07.505Z,305.12
2019-01-06T00:50:07.609Z,305.39
2019-01-06T00:51:07.724Z,306.05
2019-01-06T00:52:07.848Z,305.45
2019-01-06T00:53:07.954Z,305.68
2019-01-06T00:54:08.156Z,305.74
2019-01-06T00:55:08.205Z,305.25
2019-01-06T00:56:08.330Z,305.38
2019-01-06T00:57:08.474Z,305.35
2019-01-06T00:58:08.566Z,305.55
2019-01-06T00:59:08.721Z,305.67
2019-01-06T01:00:08.838Z,305.58
2019-01-06T01:01:08.952Z,305.24
2019-01-06T01:02:09.146Z,305.58
2019-01-06T01:03:09.259Z,305.83
2019-01-06T01:04:09.338Z,305.95
2019-01-06T01:05:09.447Z,305.38
2019-01-06T01:06:09.567Z,305.69
2019-01-06T01:07:09.719Z,305.50
2019-01-06T01:08:09.814Z,305.60
2019-01-06T01:09:09.943Z,305.72
2019-01-06T01:10:10.068Z,306.02
2019-01-06T01:11:10.308Z,305.96
2019-01-06T01:12:10.334Z,306.01
2019-01-06T01:13:10.427Z,305.81
2019-01-06T01:14:10.543Z,305.56
2019-01-06T01:15:10.698Z,305.75
2019-01-06T01:16:10.817Z,306.37
2019-01-06T01:17:10.959Z,306.14
2019-01-06T01:18:11.072Z,305.87
2019-01-06T01:19:11.281Z,305.98
2019-01-06T01:20:11.347Z,305.98
2019-01-06T01:21:11.457Z,305.83
2019-01-06T01:22:11.601Z,305.81
2019-01-06T01:23:11.705Z,306.05
2019-01-06T01:24:11.829Z,305.91
2019-01-06T01:25:12.221Z,305.68
2019-01-06T01:26:12.305Z,305.44
2019-01-06T01:27:12.493Z,305.98
2019-01-06T01:28:12.562Z,306.32
2019-01-06T01:29:12.694Z,306.01
2019-01-06T01:30:12.843Z,306.06
2019-01-06T01:31:12.950Z,305.98
2019-01-06T01:32:13.060Z,305.75
2019-01-06T01:33:13.183Z,305.85
2019-01-06T01:34:13.327Z,306.14
2019-01-06T01:35:13.507Z,305.77
2019-01-06T01:36:13.613Z,306.09
2019-01-06T01:37:13.705Z,305.77
2019-01-06T01:38:13.828Z,305.72
2019-01-06T01:39:13.968Z,305.74
2019-01-06T01:40:14.109Z,305.88
2019-01-06T01:41:14.222Z,305.72
2019-01-06T01:42:14.353Z,306.07
2019-01-06T01:43:14.489Z,305.84
2019-01-06T01:44:14.637Z,306.05
2019-01-06T01:45:14.722Z,305.88
2019-01-06T01:46:14.833Z,306.38
2019-01-06T01:47:14.965Z,306.16
2019-01-06T01:48:15.056Z,306.36
2019-01-06T01:49:15.195Z,305.90
2019-01-06T01:50:15.350Z,305.53
2019-01-06T01:51:15.476Z,306.16
2019-01-06T01:52:15.738Z,306.10
2019-01-06T01:53:15.686Z,305.63
2019-01-06T01:54:15.833Z,305.70
2019-01-06T01:55:15.975Z,305.90
2019-01-06T01:56:16.106Z,305.89
2019-01-06T01:57:16.219Z,305.79
2019-01-06T01:58:16.330Z,305.85
2019-01-06T01:59:16.433Z,305.90
2019-01-06T02:00:16.647Z,305.51
2019-01-06T02:01:16.719Z,305.97
2019-01-06T02:02:16.842Z,305.95
2019-01-06T02:03:16.948Z,306.04
2019-01-06T02:04:17.071Z,305.38
2019-01-06T02:05:17.198Z,306.13
2019-01-06T02:06:17.344Z,305.92
2019-01-06T02:07:17.459Z,305.80
2019-01-06T02:08:17.606Z,306.36
2019-01-06T02:09:17.671Z,306.16
2019-01-06T02:10:17.815Z,306.02
2019-01-06T02:11:17.942Z,306.19
2019-01-06T02:12:18.067Z,305.76
2019-01-06T02:13:18.177Z,305.74
2019-01-06T02:14:18.299Z,306.02
2019-01-06T02:15:18.443Z,305.80
2019-01-06T02:16:18.615Z,305.96
2019-01-06T02:17:18.742Z,305.77
2019-01-06T02:18:18.792Z,306.08
2019-01-06T02:19:18.917Z,306.10
2019-01-06T02:20:19.057Z,305.79
2019-01-06T02:21:19.161Z,305.73
2019-01-06T02:22:19.273Z,306.03
2019-01-06T02:23:19.476Z,305.96
2019-01-06T02:24:19.572Z,306.37
2019-01-06T02:25:19.847Z,305.75
2019-01-06T02:26:19.810Z,306.06
2019-01-06T02:27:19.917Z,305.87
2019-01-06T02:28:20.102Z,306.19
2019-01-06T02:29:20.191Z,305.86
2019-01-06T02:30:20.334Z,306.30
2019-01-06T02:31:20.474Z,306.23
2019-01-06T02:32:20.573Z,305.86
2019-01-06T02:33:20.803Z,305.56
2019-01-06T02:34:20.808Z,306.38
2019-01-06T02:35:20.948Z,306.00
2019-01-06T02:36:21.091Z,306.02
2019-01-06T02:37:21.197Z,305.92
2019-01-06T02:38:21.313Z,305.92
2019-01-06T02:39:21.426Z,306.15
2019-01-06T02:40:21.583Z,305.81
2019-01-06T02:41:21.741Z,305.84
2019-01-06T02:42:21.792Z,305.99
2019-01-06T02:43:21.953Z,305.71
2019-01-06T02:44:22.031Z,306.07
2019-01-06T02:45:22.188Z,305.81
2019-01-06T02:46:22.312Z,305.69
2019-01-06T02:47:22.419Z,305.93
2019-01-06T02:48:22.579Z,306.24
2019-01-06T02:49:22.724Z,305.73
2019-01-06T02:50:22.775Z,306.07
2019-01-06T02:51:22.940Z,305.03
2019-01-06T02:52:23.039Z,306.25
2019-01-06T02:53:23.176Z,305.94
2019-01-06T02:54:23.281Z,305.92
2019-01-06T02:55:23.428Z,306.06
2019-01-06T02:56:23.543Z,306.47
2019-01-06T02:57:23.704Z,306.11
2019-01-06T02:58:23.906Z,305.78
2019-01-06T02:59:23.891Z,306.05
2019-01-06T03:00:24.042Z,305.93
2019-01-06T03:01:24.141Z,305.70
2019-01-06T03:02:24.284Z,306.20
2019-01-06T03:03:24.644Z,305.80
2019-01-06T03:04:24.537Z,305.72
2019-01-06T03:05:24.655Z,305.80
2019-01-06T03:06:24.894Z,306.35
2019-01-06T03:07:24.885Z,306.00
2019-01-06T03:08:25.028Z,306.02
2019-01-06T03:09:25.169Z,305.56
2019-01-06T03:10:25.282Z,305.96
2019-01-06T03:11:25.378Z,306.91
2019-01-06T03:12:25.494Z,306.07
2019-01-06T03:13:25.656Z,305.90
2019-01-06T03:14:25.909Z,305.88
2019-01-06T03:15:25.886Z,306.06
2019-01-06T03:16:25.977Z,306.23
2019-01-06T03:17:26.103Z,306.19
2019-01-06T03:18:26.255Z,305.88
2019-01-06T03:19:26.392Z,306.65
2019-01-06T03:20:26.505Z,306.16
2019-01-06T03:21:26.614Z,305.66
2019-01-06T03:22:26.786Z,305.80
2019-01-06T03:23:26.876Z,305.97
2019-01-06T03:24:26.972Z,306.25
2019-01-06T03:25:27.099Z,306.07
2019-01-06T03:26:27.210Z,306.04
2019-01-06T03:27:27.334Z,306.17
2019-01-06T03:28:27.507Z,306.05
2019-01-06T03:29:27.580Z,306.48
2019-01-06T03:30:27.781Z,305.98
2019-01-06T03:31:27.940Z,305.73
2019-01-06T03:32:27.993Z,305.62
2019-01-06T03:33:28.168Z,306.05
2019-01-06T03:34:28.244Z,306.15
2019-01-06T03:35:28.360Z,306.17
2019-01-06T03:36:28.512Z,306.23
2019-01-06T03:37:28.615Z,306.06
2019-01-06T03:38:28.776Z,305.75
2019-01-06T03:39:29.176Z,306.02
2019-01-06T03:40:29.005Z,305.89
2019-01-06T03:41:29.130Z,305.95
2019-01-06T03:42:29.256Z,305.92
2019-01-06T03:43:29.407Z,305.63
2019-01-06T03:44:29.502Z,306.29
2019-01-06T03:45:29.614Z,305.69
2019-01-06T03:46:29.751Z,306.15
2019-01-06T03:47:29.956Z,306.00
2019-01-06T03:48:30.022Z,306.06
2019-01-06T03:49:30.123Z,305.84
2019-01-06T03:50:30.239Z,305.75
2019-01-06T03:51:30.400Z,305.80
2019-01-06T03:52:30.499Z,305.93
2019-01-06T03:53:30.638Z,306.28
2019-01-06T03:54:30.728Z,305.66
2019-01-06T03:55:30.929Z,306.10
2019-01-06T03:56:30.985Z,306.08
2019-01-06T03:57:31.101Z,305.99
2019-01-06T03:58:31.244Z,305.46
2019-01-06T03:59:31.352Z,306.02
2019-01-06T04:00:31.472Z,305.64
2019-01-06T04:01:31.614Z,306.06
2019-01-06T04:02:31.699Z,306.02
2019-01-06T04:03:31.932Z,305.87
2019-01-06T04:04:31.948Z,305.98
2019-01-06T04:05:32.078Z,305.63
2019-01-06T04:06:32.234Z,305.83
2019-01-06T04:07:32.334Z,306.13
2019-01-06T04:08:32.458Z,305.98
2019-01-06T04:09:32.577Z,305.85
2019-01-06T04:10:32.709Z,305.79
2019-01-06T04:11:32.912Z,306.11
2019-01-06T04:12:33.034Z,305.97
2019-01-06T04:13:33.091Z,305.99
2019-01-06T04:14:33.215Z,306.06
2019-01-06T04:15:33.330Z,306.06
2019-01-06T04:16:33.483Z,306.25
2019-01-06T04:17:35.400Z,306.34
2019-01-06T04:18:33.718Z,305.78
2019-01-06T04:19:33.810Z,306.15
2019-01-06T04:20:34.029Z,306.01
2019-01-06T04:21:34.080Z,305.88
2019-01-06T04:22:34.191Z,306.03
2019-01-06T04:23:34.318Z,305.78
2019-01-06T04:24:34.407Z,305.96
2019-01-06T04:25:34.551Z,306.02
2019-01-06T04:26:34.730Z,305.49
2019-01-06T04:27:34.815Z,305.60
2019-01-06T04:28:35.026Z,306.07
2019-01-06T04:29:35.020Z,306.23
2019-01-06T04:30:35.159Z,312.04
2019-01-06T04:31:35.300Z,310.58
2019-01-06T04:32:35.415Z,311.36
2019-01-06T04:33:35.535Z,311.25
2019-01-06T04:34:35.655Z,311.25
2019-01-06T04:35:35.752Z,311.54
2019-01-06T04:36:36.009Z,311.45
2019-01-06T04:37:36.020Z,311.42
2019-01-06T04:38:36.127Z,311.57
2019-01-06T04:39:36.278Z,311.34
2019-01-06T04:40:36.373Z,311.80
2019-01-06T04:41:36.491Z,311.00
2019-01-06T04:42:36.599Z,311.09
2019-01-06T04:43:36.738Z,311.63
2019-01-06T04:44:36.962Z,310.66
2019-01-06T04:45:37.000Z,311.18
2019-01-06T04:46:37.158Z,311.72
2019-01-06T04:47:37.236Z,311.34
2019-01-06T04:48:37.377Z,311.05
2019-01-06T04:49:37.529Z,311.24
2019-01-06T04:50:37.656Z,310.07
2019-01-06T04:51:37.779Z,311.45
2019-01-06T04:52:37.899Z,311.77
2019-01-06T04:53:38.053Z,311.20
2019-01-06T04:54:38.153Z,311.55
2019-01-06T04:55:38.255Z,311.36
2019-01-06T04:56:38.389Z,310.86
2019-01-06T04:57:38.478Z,310.75
2019-01-06T04:58:38.611Z,311.43
2019-01-06T04:59:38.759Z,310.78
2019-01-06T05:00:38.861Z,311.50
2019-01-06T05:01:39.125Z,311.75
2019-01-06T05:02:39.103Z,311.24
2019-01-06T05:03:39.246Z,311.45
2019-01-06T05:04:39.386Z,311.24
2019-01-06T05:05:39.492Z,311.90
2019-01-06T05:06:39.628Z,310.89
2019-01-06T05:07:39.736Z,311.39
2019-01-06T05:08:39.850Z,311.43
2019-01-06T05:09:40.044Z,311.12
2019-01-06T05:10:40.103Z,311.15
2019-01-06T05:11:40.246Z,311.81
2019-01-06T05:12:40.353Z,310.77
2019-01-06T05:13:40.509Z,311.29
2019-01-06T05:14:40.606Z,311.34
2019-01-06T05:15:40.725Z,311.65
2019-01-06T05:16:40.881Z,311.79
2019-01-06T05:17:41.060Z,311.47
2019-01-06T05:18:41.111Z,311.46
2019-01-06T05:19:41.228Z,311.09
2019-01-06T05:20:41.317Z,310.72
2019-01-06T05:21:41.474Z,311.22
2019-01-06T05:22:41.594Z,311.05
2019-01-06T05:23:41.713Z,311.43
2019-01-06T05:24:41.880Z,311.46
2019-01-06T05:25:41.983Z,311.29
2019-01-06T05:26:42.104Z,311.32
2019-01-06T05:27:42.225Z,310.82
2019-01-06T05:28:42.321Z,310.96
2019-01-06T05:29:42.462Z,311.30
2019-01-06T05:30:42.567Z,310.89
2019-01-06T05:31:42.694Z,311.10
2019-01-06T05:32:42.821Z,310.78
2019-01-06T05:33:42.945Z,311.90
2019-01-06T05:34:43.194Z,312.16
2019-01-06T05:35:43.182Z,311.45
2019-01-06T05:36:43.307Z,310.85
2019-01-06T05:37:43.461Z,310.79
2019-01-06T05:38:43.549Z,311.23
2019-01-06T05:39:43.688Z,311.39
2019-01-06T05:40:43.783Z,311.57
2019-01-06T05:41:43.937Z,311.10
2019-01-06T05:42:44.121Z,310.61
2019-01-06T05:43:44.149Z,310.71
2019-01-06T05:44:44.323Z,311.85
2019-01-06T05:45:44.403Z,311.37
2019-01-06T05:46:44.525Z,311.47
2019-01-06T05:47:44.656Z,311.54
2019-01-06T05:48:44.775Z,311.65
2019-01-06T05:49:44.926Z,310.87
2019-01-06T05:50:45.083Z,310.92
2019-01-06T05:51:45.139Z,311.45
2019-01-06T05:52:45.295Z,311.41
2019-01-06T05:53:45.392Z,311.65
2019-01-06T05:54:45.546Z,310.76
2019-01-06T05:55:45.675Z,311.06
2019-01-06T05:56:45.776Z,311.35
2019-01-06T05:57:45.918Z,310.98
2019-01-06T05:58:46.071Z,311.82
2019-01-06T05:59:46.120Z,311.25
2019-01-06T06:00:46.268Z,311.48
2019-01-06T06:01:46.385Z,311.60
2019-01-06T06:02:46.525Z,311.07
2019-01-06T06:03:46.621Z,310.74
2019-01-06T06:04:46.769Z,311.27
2019-01-06T06:05:46.861Z,305.91
2019-01-06T06:06:47.019Z,311.67
2019-01-06T06:07:47.220Z,311.42
2019-01-06T06:08:47.243Z,311.19
2019-01-06T06:09:47.381Z,311.10
2019-01-06T06:10:47.495Z,311.50
2019-01-06T06:11:47.613Z,311.54
2019-01-06T06:12:47.758Z,311.42
2019-01-06T06:13:47.884Z,310.80
2019-01-06T06:14:48.000Z,311.15
2019-01-06T06:15:48.224Z,311.50
2019-01-06T06:16:48.221Z,311.21
2019-01-06T06:17:48.362Z,311.40
2019-01-06T06:18:48.741Z,311.10
2019-01-06T06:19:48.616Z,311.22
2019-01-06T06:20:48.761Z,311.43
2019-01-06T06:21:48.832Z,311.60
2019-01-06T06:22:48.989Z,305.95
2019-01-06T06:23:49.168Z,305.77
2019-01-06T06:24:49.220Z,305.75
2019-01-06T06:25:49.355Z,305.97
2019-01-06T06:26:49.429Z,305.87
2019-01-06T06:27:49.584Z,305.95
2019-01-06T06:28:49.738Z,305.82
2019-01-06T06:29:49.857Z,305.61
2019-01-06T06:30:49.962Z,305.68
2019-01-06T06:31:50.142Z,305.95
2019-01-06T06:32:50.189Z,306.36
2019-01-06T06:33:50.347Z,306.27
2019-01-06T06:34:50.465Z,306.21
2019-01-06T06:35:50.565Z,305.44
2019-01-06T06:36:50.685Z,305.82
2019-01-06T06:37:50.821Z,305.93
2019-01-06T06:38:50.941Z,305.88
2019-01-06T06:39:51.108Z,305.99
2019-01-06T06:40:51.231Z,305.70
2019-01-06T06:41:51.326Z,305.69
2019-01-06T06:42:51.464Z,305.73
2019-01-06T06:43:51.632Z,305.93
2019-01-06T06:44:51.710Z,306.35
2019-01-06T06:45:51.829Z,305.79
2019-01-06T06:46:51.953Z,305.97
2019-01-06T06:47:52.114Z,306.17
2019-01-06T06:48:52.342Z,306.34
2019-01-06T06:49:52.324Z,305.70
2019-01-06T06:50:52.460Z,306.00
2019-01-06T06:51:52.746Z,305.91
2019-01-06T06:52:52.732Z,306.07
2019-01-06T06:53:52.837Z,305.73
2019-01-06T06:54:52.935Z,305.80
2019-01-06T06:55:53.075Z,306.41
2019-01-06T06:56:53.340Z,306.07
2019-01-06T06:57:53.361Z,305.56
2019-01-06T06:58:53.470Z,305.01
2019-01-06T06:59:53.578Z,305.79
2019-01-06T07:00:53.730Z,305.35
2019-01-06T07:01:53.848Z,306.31
2019-01-06T07:02:53.979Z,305.92
2019-01-06T07:03:54.089Z,305.05
2019-01-06T07:04:54.237Z,305.27
2019-01-06T07:05:54.323Z,305.79
2019-01-06T07:06:54.456Z,305.64
2019-01-06T07:07:54.585Z,306.15
2019-01-06T07:08:54.691Z,306.01
2019-01-06T07:09:54.819Z,306.00
2019-01-06T07:10:54.960Z,305.67
2019-01-06T07:11:55.075Z,306.13
2019-01-06T07:12:55.244Z,305.76
2019-01-06T07:13:55.324Z,306.05
2019-01-06T07:14:55.456Z,306.37
2019-01-06T07:15:55.571Z,306.17
2019-01-06T07:16:55.665Z,306.17
2019-01-06T07:17:55.809Z,306.74
2019-01-06T07:18:55.935Z,306.18
2019-01-06T07:19:56.082Z,306.57
2019-01-06T07:20:56.213Z,306.69
2019-01-06T07:21:56.396Z,306.43
2019-01-06T07:22:56.426Z,306.70
2019-01-06T07:23:56.546Z,306.33
2019-01-06T07:24:56.676Z,305.95
2019-01-06T07:25:56.814Z,306.85
2019-01-06T07:26:56.916Z,305.57
2019-01-06T07:27:57.072Z,306.20
2019-01-06T07:28:57.154Z,306.46
2019-01-06T07:29:57.370Z,305.98
2019-01-06T07:30:57.434Z,306.00
2019-01-06T07:31:57.540Z,305.97
2019-01-06T07:32:57.682Z,306.55
2019-01-06T07:33:57.763Z,305.64
2019-01-06T07:34:57.902Z,305.39
2019-01-06T07:35:58.048Z,306.12
2019-01-06T07:36:58.159Z,306.23
2019-01-06T07:37:58.398Z,305.79
2019-01-06T07:38:58.378Z,306.08
2019-01-06T07:39:58.523Z,305.74
2019-01-06T07:41:01.464Z,305.62
2019-01-06T07:41:58.761Z,305.30
2019-01-06T07:42:58.936Z,305.94
2019-01-06T07:43:59.012Z,305.36
2019-01-06T07:44:59.144Z,305.46
2019-01-06T07:45:59.323Z,305.96
2019-01-06T07:46:59.365Z,306.00
2019-01-06T07:47:59.515Z,305.91
2019-01-06T07:48:59.618Z,305.96
2019-01-06T07:49:59.765Z,305.77
2019-01-06T07:50:59.870Z,305.61
2019-01-06T07:52:00.007Z,306.98
2019-01-06T07:53:00.130Z,306.02
2019-01-06T07:54:00.298Z,306.09
2019-01-06T07:55:00.366Z,305.88
2019-01-06T07:56:00.484Z,305.71
2019-01-06T07:57:00.580Z,306.29
2019-01-06T07:58:00.981Z,305.65
2019-01-06T07:59:00.843Z,305.88
2019-01-06T08:00:01.002Z,305.99
2019-01-06T08:01:01.111Z,305.90
2019-01-06T08:02:01.246Z,305.97
2019-01-06T08:03:01.351Z,305.97
2019-01-06T08:04:01.463Z,306.52
2019-01-06T08:05:01.595Z,306.30
2019-01-06T08:06:01.726Z,306.21
2019-01-06T08:07:01.831Z,306.38
2019-01-06T08:08:01.941Z,305.89
2019-01-06T08:09:02.098Z,306.44
2019-01-06T08:10:02.273Z,306.60
2019-01-06T08:11:02.494Z,306.02
2019-01-06T08:12:04.236Z,306.12
2019-01-06T08:13:02.584Z,306.23
2019-01-06T08:14:02.741Z,305.88
2019-01-06T08:15:02.904Z,305.63
2019-01-06T08:16:03.001Z,306.10
2019-01-06T08:17:03.117Z,305.87
2019-01-06T08:18:03.223Z,305.96
2019-01-06T08:19:03.434Z,306.20
2019-01-06T08:20:03.489Z,305.91
2019-01-06T08:21:03.615Z,306.06
2019-01-06T08:22:03.721Z,306.21
2019-01-06T08:23:03.844Z,305.86
2019-01-06T08:24:03.969Z,306.18
2019-01-06T08:25:04.118Z,306.10
2019-01-06T08:26:04.234Z,306.22
2019-01-06T08:27:04.420Z,305.70
2019-01-06T08:28:04.454Z,306.17
2019-01-06T08:29:04.584Z,305.80
2019-01-06T08:30:04.704Z,306.17
2019-01-06T08:31:04.867Z,306.56
2019-01-06T08:32:04.939Z,306.13
2019-01-06T08:33:05.063Z,305.74
2019-01-06T08:34:05.205Z,305.94
2019-01-06T08:35:05.344Z,305.94
2019-01-06T08:36:05.476Z,305.58
2019-01-06T08:37:05.563Z,305.74
2019-01-06T08:38:05.682Z,305.92
2019-01-06T08:39:05.825Z,306.16
2019-01-06T08:40:05.929Z,306.30
2019-01-06T08:41:06.081Z,306.06
2019-01-06T08:42:06.163Z,305.69
2019-01-06T08:43:06.313Z,306.18
2019-01-06T08:44:06.553Z,306.11
2019-01-06T08:45:06.545Z,305.85
2019-01-06T08:46:06.694Z,306.12
2019-01-06T08:47:06.791Z,306.40
2019-01-06T08:48:06.913Z,306.03
2019-01-06T08:49:07.055Z,306.18
2019-01-06T08:50:07.161Z,306.25
2019-01-06T08:51:07.334Z,305.89
2019-01-06T08:52:07.532Z,305.98
2019-01-06T08:53:07.530Z,306.12
2019-01-06T08:54:07.673Z,304.81
2019-01-06T08:55:07.776Z,305.97
2019-01-06T08:56:07.947Z,306.05
2019-01-06T08:57:08.008Z,305.87
2019-01-06T08:58:08.138Z,306.18
2019-01-06T08:59:08.287Z,306.45
2019-01-06T09:00:08.525Z,306.16
2019-01-06T09:01:08.527Z,306.30
2019-01-06T09:02:08.624Z,305.81
2019-01-06T09:03:08.738Z,306.18
2019-01-06T09:04:08.894Z,306.27
2019-01-06T09:05:09.002Z,306.06
2019-01-06T09:06:09.138Z,306.31
2019-01-06T09:07:09.264Z,305.42
2019-01-06T09:08:09.409Z,306.30
2019-01-06T09:09:09.490Z,306.46
2019-01-06T09:10:09.599Z,306.61
2019-01-06T09:11:09.730Z,306.02
2019-01-06T09:12:09.859Z,305.86
2019-01-06T09:13:09.968Z,306.47
2019-01-06T09:14:10.106Z,306.28
2019-01-06T09:15:10.212Z,306.33
2019-01-06T09:16:10.410Z,306.48
2019-01-06T09:17:10.574Z,306.02
2019-01-06T09:18:12.203Z,306.31
2019-01-06T09:19:10.740Z,306.19
2019-01-06T09:20:10.845Z,305.79
2019-01-06T09:21:11.002Z,305.93
2019-01-06T09:22:11.131Z,306.20
2019-01-06T09:23:11.233Z,305.98
2019-01-06T09:24:11.388Z,306.51
2019-01-06T09:25:11.601Z,306.16
2019-01-06T09:26:11.607Z,306.04
2019-01-06T09:27:11.774Z,305.72
2019-01-06T09:28:11.855Z,306.00
2019-01-06T09:29:11.987Z,306.17
2019-01-06T09:30:12.078Z,306.17
2019-01-06T09:31:12.228Z,306.28
2019-01-06T09:32:12.388Z,306.51
2019-01-06T09:33:12.594Z,306.14
2019-01-06T09:34:12.626Z,306.00
2019-01-06T09:35:12.718Z,306.20
2019-01-06T09:36:12.835Z,306.28
2019-01-06T09:37:13.000Z,306.10
2019-01-06T09:38:13.101Z,306.29
2019-01-06T09:39:13.239Z,305.97
2019-01-06T09:40:13.345Z,306.52
2019-01-06T09:41:13.502Z,306.35
2019-01-06T09:42:13.605Z,306.09
2019-01-06T09:43:13.699Z,305.81
2019-01-06T09:44:13.850Z,306.17
2019-01-06T09:45:13.950Z,306.07
2019-01-06T09:46:14.094Z,306.07
2019-01-06T09:47:14.264Z,305.92
2019-01-06T09:48:14.303Z,306.38
2019-01-06T09:49:14.510Z,306.09
2019-01-06T09:50:14.542Z,306.13
2019-01-06T09:51:14.680Z,306.41
2019-01-06T09:52:14.882Z,306.11
2019-01-06T09:53:14.919Z,305.51
2019-01-06T09:54:15.059Z,306.01
2019-01-06T09:55:15.181Z,305.99
2019-01-06T09:56:15.294Z,306.37
2019-01-06T09:57:15.493Z,306.10
2019-01-06T09:58:15.625Z,305.73
2019-01-06T09:59:15.700Z,305.88
2019-01-06T10:00:15.811Z,306.01
2019-01-06T10:01:15.939Z,305.90
2019-01-06T10:02:16.082Z,306.23
2019-01-06T10:03:16.196Z,306.00
2019-01-06T10:04:16.331Z,306.11
2019-01-06T10:05:16.421Z,305.66
2019-01-06T10:06:16.709Z,305.91
2019-01-06T10:07:16.693Z,305.48
2019-01-06T10:08:16.807Z,305.77
2019-01-06T10:09:16.926Z,306.60
2019-01-06T10:10:17.027Z,305.37
2019-01-06T10:11:17.179Z,305.90
2019-01-06T10:12:17.314Z,306.11
2019-01-06T10:13:17.433Z,306.32
2019-01-06T10:14:17.646Z,306.09
2019-01-06T10:15:17.641Z,306.12
2019-01-06T10:16:17.780Z,306.01
2019-01-06T10:17:17.925Z,304.73
2019-01-06T10:18:18.039Z,304.96
2019-01-06T10:19:18.155Z,305.07
2019-01-06T10:20:18.291Z,305.41
2019-01-06T10:21:18.392Z,305.90
2019-01-06T10:22:18.581Z,306.03
2019-01-06T10:23:18.666Z,305.83
2019-01-06T10:24:18.786Z,306.45
2019-01-06T10:25:18.929Z,306.51
2019-01-06T10:26:19.050Z,305.87
2019-01-06T10:27:19.170Z,306.50
2019-01-06T10:28:19.316Z,305.62
2019-01-06T10:29:19.420Z,306.41
2019-01-06T10:30:19.624Z,306.18
2019-01-06T10:31:19.727Z,306.19
2019-01-06T10:32:19.798Z,306.13
2019-01-06T10:33:19.966Z,306.04
2019-01-06T10:34:20.055Z,305.88
2019-01-06T10:35:20.197Z,306.54
2019-01-06T10:36:20.302Z,306.12
2019-01-06T10:37:20.453Z,306.28
2019-01-06T10:38:20.562Z,306.25
2019-01-06T10:39:20.788Z,306.87
2019-01-06T10:40:20.810Z,305.95
2019-01-06T10:41:20.922Z,306.07
2019-01-06T10:42:21.060Z,306.22
2019-01-06T10:43:21.157Z,305.85
2019-01-06T10:44:21.297Z,306.75
2019-01-06T10:45:21.437Z,306.24
2019-01-06T10:46:21.545Z,306.59
2019-01-06T10:47:21.786Z,306.18
2019-01-06T10:48:21.854Z,306.42
2019-01-06T10:49:21.928Z,306.36
2019-01-06T10:50:22.061Z,306.62
2019-01-06T10:51:22.165Z,306.33
2019-01-06T10:52:22.305Z,305.90
2019-01-06T10:53:22.411Z,306.04
2019-01-06T10:54:22.545Z,306.09
2019-01-06T10:55:22.749Z,306.05
2019-01-06T10:56:22.757Z,306.01
2019-01-06T10:57:22.910Z,306.15
2019-01-06T10:58:23.026Z,306.10
2019-01-06T10:59:23.149Z,306.15
2019-01-06T11:00:23.266Z,306.10
2019-01-06T11:01:23.388Z,306.13
2019-01-06T11:02:23.526Z,306.03
2019-01-06T11:03:23.691Z,306.14
2019-01-06T11:04:23.740Z,305.69
2019-01-06T11:05:23.866Z,305.82
2019-01-06T11:06:23.979Z,305.32
2019-01-06T11:07:24.130Z,306.44
2019-01-06T11:08:24.248Z,305.44
2019-01-06T11:09:24.372Z,305.48
2019-01-06T11:10:24.502Z,305.37
2019-01-06T11:11:24.625Z,305.67
2019-01-06T11:12:24.822Z,305.43
2019-01-06T11:13:25.093Z,305.68
2019-01-06T11:14:25.019Z,305.59
2019-01-06T11:15:25.133Z,305.62
2019-01-06T11:16:25.239Z,305.94
2019-01-06T11:17:25.349Z,305.77
2019-01-06T11:18:25.517Z,305.70
2019-01-06T11:19:25.630Z,305.63
2019-01-06T11:20:25.931Z,306.00
2019-01-06T11:21:25.873Z,306.27
2019-01-06T11:22:25.981Z,305.68
2019-01-06T11:23:26.168Z,305.26
2019-01-06T11:24:26.256Z,305.81
2019-01-06T11:25:26.406Z,305.91
2019-01-06T11:26:26.511Z,305.80
2019-01-06T11:27:26.636Z,305.39
2019-01-06T11:28:26.912Z,305.66
2019-01-06T11:29:26.878Z,306.15
2019-01-06T11:30:27.027Z,306.00
2019-01-06T11:31:27.127Z,306.03
2019-01-06T11:32:27.258Z,305.58
2019-01-06T11:33:27.428Z,305.73
2019-01-06T11:34:27.529Z,306.00
2019-01-06T11:35:27.670Z,305.58
2019-01-06T11:36:27.818Z,305.81
2019-01-06T11:37:27.871Z,305.55
2019-01-06T11:38:28.021Z,306.35
2019-01-06T11:39:28.142Z,305.92
2019-01-06T11:40:28.271Z,305.76
2019-01-06T11:41:28.374Z,305.78
2019-01-06T11:42:28.489Z,306.02
2019-01-06T11:43:28.636Z,305.89
2019-01-06T11:44:28.841Z,305.63
2019-01-06T11:45:28.894Z,305.52
2019-01-06T11:46:28.998Z,305.65
2019-01-06T11:47:29.119Z,305.85
2019-01-06T11:48:29.260Z,305.39
2019-01-06T11:49:29.393Z,305.57
2019-01-06T11:50:29.509Z,305.39
2019-01-06T11:51:29.600Z,305.82
2019-01-06T11:52:29.758Z,305.47
2019-01-06T11:53:30.039Z,305.40
2019-01-06T11:54:30.021Z,305.91
2019-01-06T11:55:30.137Z,305.43
2019-01-06T11:56:30.250Z,305.76
2019-01-06T11:57:30.366Z,305.95
2019-01-06T11:58:30.509Z,305.63
2019-01-06T11:59:30.618Z,305.76
2019-01-06T12:00:30.767Z,305.96
2019-01-06T12:01:30.969Z,305.24
2019-01-06T12:02:38.779Z,305.79
2019-01-06T12:03:32.125Z,305.37
2019-01-06T12:04:31.251Z,305.82
2019-01-06T12:05:31.373Z,306.00
2019-01-06T12:06:31.487Z,306.15
2019-01-06T12:07:31.589Z,305.47
2019-01-06T12:08:31.745Z,306.03
2019-01-06T12:09:32.020Z,305.81
2019-01-06T12:10:31.972Z,305.93
2019-01-06T12:11:32.094Z,305.35
2019-01-06T12:12:32.194Z,305.95
2019-01-06T12:13:32.346Z,305.36
2019-01-06T12:14:32.456Z,305.66
2019-01-06T12:15:32.595Z,305.85
2019-01-06T12:16:32.715Z,305.57
2019-01-06T12:17:33.124Z,305.72
2019-01-06T12:18:32.913Z,305.53
2019-01-06T12:19:33.902Z,305.92
2019-01-06T12:20:33.197Z,306.06
2019-01-06T12:21:33.329Z,305.84
2019-01-06T12:22:33.430Z,306.08
2019-01-06T12:23:33.584Z,305.84
2019-01-06T12:24:33.720Z,306.18
2019-01-06T12:25:33.858Z,305.73
2019-01-06T12:26:34.008Z,305.67
2019-01-06T12:27:34.070Z,305.97
2019-01-06T12:28:34.215Z,305.58
2019-01-06T12:29:34.311Z,305.40